createdAt,value
2023-04-19T00:00:23.926Z,27.51
2023-04-19T00:01:24.044Z,27.55
2023-04-19T00:02:24.123Z,27.55
2023-04-19T00:03:24.264Z,27.55
2023-04-19T00:04:24.468Z,27.57
2023-04-19T00:05:24.158Z,27.54
2023-04-19T00:06:24.173Z,27.54
2023-04-19T00:07:24.180Z,27.55
2023-04-19T00:08:24.224Z,27.54
2023-04-19T00:09:24.222Z,27.54
2023-04-19T00:10:24.286Z,27.49
2023-04-19T00:11:24.296Z,27.57
2023-04-19T00:12:24.318Z,27.51
2023-04-19T00:13:24.351Z,27.48
2023-04-19T00:14:24.299Z,27.54
2023-04-19T00:15:24.511Z,27.52
2023-04-19T00:16:24.445Z,27.55
2023-04-19T00:17:24.412Z,27.55
2023-04-19T00:18:24.478Z,27.54
2023-04-19T00:19:24.509Z,27.57
2023-04-19T00:20:24.473Z,27.52
2023-04-19T00:21:24.513Z,27.57
2023-04-19T00:22:24.526Z,27.54
2023-04-19T00:23:24.620Z,27.55
2023-04-19T00:24:25.108Z,27.49
2023-04-19T00:25:24.612Z,27.51
2023-04-19T00:26:24.664Z,27.54
2023-04-19T00:27:24.705Z,27.52
2023-04-19T00:28:24.762Z,27.49
2023-04-19T00:29:24.774Z,27.51
2023-04-19T00:30:24.890Z,27.52
2023-04-19T00:31:24.826Z,27.51
2023-04-19T00:32:24.880Z,27.52
2023-04-19T00:33:24.868Z,27.54
2023-04-19T00:34:25.119Z,27.55
2023-04-19T00:35:24.893Z,27.52
2023-04-19T00:36:24.890Z,27.49
2023-04-19T00:37:24.923Z,27.47
2023-04-19T00:38:24.923Z,27.52
2023-04-19T00:39:25.015Z,27.50
2023-04-19T00:40:24.934Z,27.50
2023-04-19T00:41:24.965Z,27.54
2023-04-19T00:42:24.976Z,27.54
2023-04-19T00:43:25.039Z,27.49
2023-04-19T00:44:25.074Z,27.50
2023-04-19T00:45:25.015Z,27.45
2023-04-19T00:46:25.782Z,27.49
2023-04-19T00:47:25.075Z,27.51
2023-04-19T00:48:25.106Z,27.50
2023-04-19T00:49:25.175Z,27.51
2023-04-19T00:50:25.151Z,27.46
2023-04-19T00:51:25.239Z,27.49
2023-04-19T00:52:25.317Z,27.50
2023-04-19T00:53:25.213Z,27.43
2023-04-19T00:54:25.239Z,27.46
2023-04-19T00:55:25.222Z,27.45
2023-04-19T00:56:25.274Z,27.46
2023-04-19T00:57:25.333Z,27.51
2023-04-19T00:58:25.310Z,27.49
2023-04-19T00:59:25.353Z,27.47
2023-04-19T01:00:25.900Z,27.50
2023-04-19T01:01:25.418Z,27.49
2023-04-19T01:02:25.591Z,27.49
2023-04-19T01:03:25.582Z,27.55
2023-04-19T01:04:25.639Z,27.49
2023-04-19T01:05:25.445Z,27.46
2023-04-19T01:06:25.533Z,27.49
2023-04-19T01:07:25.523Z,27.47
2023-04-19T01:08:25.628Z,27.47
2023-04-19T01:09:25.538Z,27.49
2023-04-19T01:10:25.562Z,27.47
2023-04-19T01:11:25.585Z,27.47
2023-04-19T01:12:25.616Z,27.47
2023-04-19T01:13:25.617Z,27.46
2023-04-19T01:14:25.659Z,27.47
2023-04-19T01:15:25.679Z,27.49
2023-04-19T01:16:25.734Z,27.49
2023-04-19T01:17:25.807Z,27.50
2023-04-19T01:18:25.704Z,27.44
2023-04-19T01:19:25.730Z,27.46
2023-04-19T01:20:25.759Z,27.50
2023-04-19T01:21:25.755Z,27.44
2023-04-19T01:22:25.816Z,27.46
2023-04-19T01:23:25.932Z,27.44
2023-04-19T01:24:25.947Z,27.49
2023-04-19T01:25:25.880Z,27.47
2023-04-19T01:26:25.877Z,27.52
2023-04-19T01:27:26.199Z,27.50
2023-04-19T01:28:25.969Z,27.43
2023-04-19T01:29:26.047Z,27.47
2023-04-19T01:30:25.979Z,27.44
2023-04-19T01:31:26.121Z,27.47
2023-04-19T01:32:26.022Z,27.44
2023-04-19T01:33:26.051Z,27.46
2023-04-19T01:34:26.006Z,27.47
2023-04-19T01:35:26.043Z,27.46
2023-04-19T01:36:26.112Z,27.49
2023-04-19T01:37:26.070Z,27.47
2023-04-19T01:38:26.163Z,27.47
2023-04-19T01:39:26.140Z,27.45
2023-04-19T01:40:26.166Z,27.49
2023-04-19T01:41:26.145Z,27.47
2023-04-19T01:42:26.181Z,27.50
2023-04-19T01:43:26.192Z,27.49
2023-04-19T01:44:26.209Z,27.49
2023-04-19T01:45:26.260Z,27.47
2023-04-19T01:46:26.303Z,27.50
2023-04-19T01:47:26.221Z,27.49
2023-04-19T01:48:26.257Z,27.46
2023-04-19T01:49:26.291Z,27.52
2023-04-19T01:50:26.326Z,27.50
2023-04-19T01:51:26.323Z,27.49
2023-04-19T01:52:26.371Z,27.44
2023-04-19T01:53:26.361Z,27.44
2023-04-19T01:54:26.452Z,27.45
2023-04-19T01:55:26.424Z,27.48
2023-04-19T01:56:26.469Z,27.49
2023-04-19T01:57:26.491Z,27.45
2023-04-19T01:58:26.490Z,27.50
2023-04-19T01:59:26.440Z,27.50
2023-04-19T02:00:26.604Z,27.42
2023-04-19T02:01:26.584Z,27.42
2023-04-19T02:02:26.685Z,27.47
2023-04-19T02:03:26.710Z,27.45
2023-04-19T02:04:26.737Z,27.47
2023-04-19T02:05:26.605Z,27.47
2023-04-19T02:06:26.604Z,27.48
2023-04-19T02:07:26.608Z,27.45
2023-04-19T02:08:26.655Z,27.47
2023-04-19T02:09:26.672Z,27.48
2023-04-19T02:10:26.665Z,27.45
2023-04-19T02:11:26.674Z,27.50
2023-04-19T02:12:26.699Z,27.44
2023-04-19T02:13:26.696Z,27.48
2023-04-19T02:14:26.764Z,27.47
2023-04-19T02:15:26.738Z,27.47
2023-04-19T02:16:26.877Z,27.44
2023-04-19T02:17:26.788Z,27.47
2023-04-19T02:18:26.827Z,27.50
2023-04-19T02:19:26.727Z,27.39
2023-04-19T02:20:26.821Z,27.45
2023-04-19T02:21:26.841Z,27.50
2023-04-19T02:22:26.824Z,27.47
2023-04-19T02:23:26.843Z,27.47
2023-04-19T02:24:26.789Z,27.44
2023-04-19T02:25:26.902Z,27.47
2023-04-19T02:26:26.895Z,27.45
2023-04-19T02:27:26.889Z,27.47
2023-04-19T02:28:26.899Z,27.42
2023-04-19T02:29:26.906Z,27.45
2023-04-19T02:30:26.940Z,27.45
2023-04-19T02:31:26.984Z,27.47
2023-04-19T02:32:27.038Z,27.45
2023-04-19T02:33:26.970Z,27.53
2023-04-19T02:34:27.020Z,27.42
2023-04-19T02:35:27.027Z,27.47
2023-04-19T02:36:27.159Z,27.47
2023-04-19T02:37:27.058Z,27.51
2023-04-19T02:38:27.065Z,27.47
2023-04-19T02:39:27.147Z,27.45
2023-04-19T02:40:27.147Z,27.44
2023-04-19T02:41:27.164Z,27.47
2023-04-19T02:42:27.207Z,27.48
2023-04-19T02:43:27.203Z,27.49
2023-04-19T02:44:27.305Z,27.44
2023-04-19T02:45:27.285Z,27.47
2023-04-19T02:46:27.345Z,27.48
2023-04-19T02:47:27.321Z,27.41
2023-04-19T02:48:27.337Z,27.45
2023-04-19T02:49:27.345Z,27.42
2023-04-19T02:50:27.449Z,27.45
2023-04-19T02:51:27.382Z,27.44
2023-04-19T02:52:27.378Z,27.48
2023-04-19T02:53:27.405Z,27.42
2023-04-19T02:54:28.121Z,27.45
2023-04-19T02:55:27.416Z,27.42
2023-04-19T02:56:27.398Z,27.48
2023-04-19T02:57:27.441Z,27.41
2023-04-19T02:58:27.454Z,27.44
2023-04-19T02:59:27.463Z,27.45
2023-04-19T03:00:27.482Z,27.44
2023-04-19T03:01:27.597Z,27.51
2023-04-19T03:02:27.604Z,27.47
2023-04-19T03:03:27.609Z,27.47
2023-04-19T03:04:28.405Z,27.47
2023-04-19T03:05:27.641Z,27.45
2023-04-19T03:06:27.664Z,27.41
2023-04-19T03:07:27.688Z,27.44
2023-04-19T03:08:27.676Z,27.44
2023-04-19T03:09:27.714Z,27.45
2023-04-19T03:10:27.730Z,27.45
2023-04-19T03:11:27.811Z,27.49
2023-04-19T03:12:27.888Z,27.48
2023-04-19T03:13:27.838Z,27.44
2023-04-19T03:14:27.833Z,27.48
2023-04-19T03:15:27.908Z,27.42
2023-04-19T03:16:27.977Z,27.45
2023-04-19T03:17:27.974Z,27.42
2023-04-19T03:18:27.964Z,27.47
2023-04-19T03:19:27.954Z,27.44
2023-04-19T03:20:28.008Z,27.41
2023-04-19T03:21:28.139Z,27.48
2023-04-19T03:22:28.058Z,27.44
2023-04-19T03:23:28.053Z,27.47
2023-04-19T03:24:28.081Z,27.47
2023-04-19T03:25:28.113Z,27.44
2023-04-19T03:26:28.154Z,27.46
2023-04-19T03:27:28.174Z,27.45
2023-04-19T03:28:28.146Z,27.43
2023-04-19T03:29:28.225Z,27.47
2023-04-19T03:30:28.226Z,27.45
2023-04-19T03:31:28.364Z,27.46
2023-04-19T03:32:28.290Z,27.46
2023-04-19T03:33:28.249Z,27.49
2023-04-19T03:34:28.321Z,27.48
2023-04-19T03:35:28.297Z,27.49
2023-04-19T03:36:28.383Z,27.45
2023-04-19T03:37:28.437Z,27.43
2023-04-19T03:38:28.391Z,27.44
2023-04-19T03:39:28.459Z,27.48
2023-04-19T03:40:28.433Z,27.45
2023-04-19T03:41:28.631Z,27.48
2023-04-19T03:42:29.328Z,27.46
2023-04-19T03:43:28.597Z,27.46
2023-04-19T03:44:28.557Z,27.49
2023-04-19T03:45:28.670Z,27.44
2023-04-19T03:46:28.622Z,27.49
2023-04-19T03:47:28.614Z,27.48
2023-04-19T03:48:28.678Z,27.48
2023-04-19T03:49:28.624Z,27.46
2023-04-19T03:50:28.703Z,27.44
2023-04-19T03:51:28.736Z,27.46
2023-04-19T03:52:28.758Z,27.46
2023-04-19T03:53:28.939Z,27.46
2023-04-19T03:54:29.022Z,27.43
2023-04-19T03:55:29.044Z,27.46
2023-04-19T03:56:28.819Z,27.43
2023-04-19T03:57:28.851Z,27.49
2023-04-19T03:58:28.906Z,27.49
2023-04-19T03:59:28.971Z,27.49
2023-04-19T04:00:28.841Z,27.48
2023-04-19T04:01:28.934Z,27.44
2023-04-19T04:02:29.055Z,27.48
2023-04-19T04:03:29.269Z,27.48
2023-04-19T04:04:29.151Z,27.44
2023-04-19T04:05:29.039Z,27.45
2023-04-19T04:06:29.050Z,27.43
2023-04-19T04:07:29.060Z,27.40
2023-04-19T04:08:29.060Z,27.37
2023-04-19T04:09:29.105Z,27.37
2023-04-19T04:10:29.117Z,27.33
2023-04-19T04:11:29.162Z,27.30
2023-04-19T04:12:29.190Z,27.31
2023-04-19T04:13:29.257Z,27.22
2023-04-19T04:14:29.330Z,27.27
2023-04-19T04:15:29.310Z,27.30
2023-04-19T04:16:29.326Z,27.22
2023-04-19T04:17:29.368Z,27.20
2023-04-19T04:18:29.361Z,27.22
2023-04-19T04:19:29.348Z,27.22
2023-04-19T04:20:29.392Z,27.23
2023-04-19T04:21:29.416Z,27.15
2023-04-19T04:22:29.397Z,27.24
2023-04-19T04:23:29.476Z,27.19
2023-04-19T04:24:29.480Z,27.16
2023-04-19T04:25:29.525Z,27.15
2023-04-19T04:26:29.592Z,27.20
2023-04-19T04:27:29.552Z,27.10
2023-04-19T04:28:29.567Z,27.13
2023-04-19T04:29:29.609Z,27.15
2023-04-19T04:30:32.183Z,27.11
2023-04-19T04:31:29.873Z,27.06
2023-04-19T04:32:29.877Z,27.07
2023-04-19T04:33:29.870Z,27.05
2023-04-19T04:34:29.899Z,27.06
2023-04-19T04:35:29.922Z,26.98
2023-04-19T04:36:29.995Z,27.01
2023-04-19T04:37:29.990Z,27.04
2023-04-19T04:38:29.994Z,27.03
2023-04-19T04:39:30.000Z,27.01
2023-04-19T04:40:30.064Z,27.01
2023-04-19T04:41:30.113Z,26.98
2023-04-19T04:42:30.131Z,27.08
2023-04-19T04:43:30.171Z,27.01
2023-04-19T04:44:30.196Z,27.08
2023-04-19T04:45:30.211Z,27.07
2023-04-19T04:46:30.203Z,27.08
2023-04-19T04:47:30.389Z,27.07
2023-04-19T04:48:30.337Z,27.11
2023-04-19T04:49:30.300Z,27.07
2023-04-19T04:50:30.325Z,27.04
2023-04-19T04:51:30.390Z,27.07
2023-04-19T04:52:30.403Z,27.10
2023-04-19T04:53:30.416Z,27.08
2023-04-19T04:54:30.504Z,27.08
2023-04-19T04:55:30.452Z,27.10
2023-04-19T04:56:30.513Z,27.07
2023-04-19T04:57:30.498Z,27.10
2023-04-19T04:58:30.562Z,27.13
2023-04-19T04:59:30.585Z,27.11
2023-04-19T05:00:30.610Z,27.19
2023-04-19T05:01:30.695Z,27.13
2023-04-19T05:02:30.747Z,27.17
2023-04-19T05:03:30.866Z,27.20
2023-04-19T05:04:30.810Z,27.23
2023-04-19T05:05:30.741Z,27.25
2023-04-19T05:06:30.757Z,27.25
2023-04-19T05:07:30.875Z,27.23
2023-04-19T05:08:30.865Z,27.41
2023-04-19T05:09:30.894Z,27.41
2023-04-19T05:10:30.894Z,27.38
2023-04-19T05:11:30.992Z,27.43
2023-04-19T05:12:31.009Z,27.37
2023-04-19T05:13:31.071Z,27.44
2023-04-19T05:14:31.088Z,27.43
2023-04-19T05:15:31.064Z,27.40
2023-04-19T05:16:31.245Z,27.52
2023-04-19T05:17:31.258Z,27.46
2023-04-19T05:18:31.244Z,27.52
2023-04-19T05:19:31.187Z,27.65
2023-04-19T05:20:31.221Z,27.76
2023-04-19T05:21:31.281Z,27.80
2023-04-19T05:22:31.270Z,28.00
2023-04-19T05:23:31.322Z,28.04
2023-04-19T05:24:31.380Z,27.89
2023-04-19T05:25:31.356Z,27.90
2023-04-19T05:26:31.443Z,27.83
2023-04-19T05:27:31.455Z,27.81
2023-04-19T05:28:31.485Z,27.82
2023-04-19T05:29:31.470Z,27.75
2023-04-19T05:30:31.703Z,27.85
2023-04-19T05:31:31.612Z,27.78
2023-04-19T05:32:32.015Z,27.76
2023-04-19T05:33:31.623Z,27.78
2023-04-19T05:34:31.636Z,27.83
2023-04-19T05:35:31.634Z,27.96
2023-04-19T05:36:31.694Z,27.95
2023-04-19T05:37:32.262Z,27.95
2023-04-19T05:38:31.947Z,28.01
2023-04-19T05:39:32.810Z,27.92
2023-04-19T05:40:32.288Z,27.97
2023-04-19T05:41:31.860Z,27.90
2023-04-19T05:42:33.128Z,27.74
2023-04-19T05:43:32.085Z,27.72
2023-04-19T05:44:31.979Z,27.84
2023-04-19T05:45:31.940Z,27.81
2023-04-19T05:46:32.770Z,27.86
2023-04-19T05:47:32.194Z,27.83
2023-04-19T05:48:32.071Z,27.83
2023-04-19T05:49:32.084Z,27.68
2023-04-19T05:50:32.191Z,27.72
2023-04-19T05:51:32.230Z,27.73
2023-04-19T05:52:32.138Z,27.74
2023-04-19T05:53:32.170Z,27.75
2023-04-19T05:54:32.223Z,27.78
2023-04-19T05:55:32.224Z,27.68
2023-04-19T05:56:32.269Z,27.63
2023-04-19T05:57:32.302Z,27.74
2023-04-19T05:58:32.365Z,27.69
2023-04-19T05:59:32.373Z,27.68
2023-04-19T06:00:32.450Z,27.66
2023-04-19T06:01:32.427Z,27.66
2023-04-19T06:02:32.557Z,27.64
2023-04-19T06:03:32.639Z,27.63
2023-04-19T06:04:32.882Z,27.57
2023-04-19T06:05:32.519Z,27.57
2023-04-19T06:06:32.749Z,27.45
2023-04-19T06:07:34.498Z,27.41
2023-04-19T06:08:33.580Z,27.49
2023-04-19T06:09:32.780Z,27.57
2023-04-19T06:10:44.538Z,27.51
2023-04-19T06:11:42.970Z,27.44
2023-04-19T06:12:33.790Z,27.39
2023-04-19T06:13:32.505Z,27.58
2023-04-19T06:14:33.241Z,27.63
2023-04-19T06:15:32.732Z,27.60
2023-04-19T06:16:33.016Z,27.51
2023-04-19T06:17:32.499Z,27.58
2023-04-19T06:18:32.501Z,27.53
2023-04-19T06:19:32.525Z,27.48
2023-04-19T06:20:32.451Z,27.53
2023-04-19T06:21:32.476Z,27.49
2023-04-19T06:22:32.480Z,27.51
2023-04-19T06:23:32.452Z,27.54
2023-04-19T06:24:33.744Z,27.51
2023-04-19T06:25:33.252Z,27.54
2023-04-19T06:26:33.413Z,27.53
2023-04-19T06:27:33.262Z,27.51
2023-04-19T06:28:32.412Z,27.77
2023-04-19T06:29:32.772Z,27.56
2023-04-19T06:30:33.255Z,27.59
2023-04-19T06:31:32.457Z,27.58
2023-04-19T06:32:32.787Z,27.59
2023-04-19T06:33:32.411Z,27.64
2023-04-19T06:34:32.345Z,27.61
2023-04-19T06:35:32.380Z,27.67
2023-04-19T06:36:32.380Z,27.64
2023-04-19T06:37:32.330Z,27.64
2023-04-19T06:38:32.428Z,27.66
2023-04-19T06:39:33.301Z,27.73
2023-04-19T06:40:33.184Z,27.72
2023-04-19T06:41:35.270Z,27.82
2023-04-19T06:42:32.375Z,27.84
2023-04-19T06:43:32.321Z,27.90
2023-04-19T06:44:32.801Z,27.82
2023-04-19T06:45:32.344Z,27.88
2023-04-19T06:46:32.611Z,28.00
2023-04-19T06:47:35.416Z,28.05
2023-04-19T06:48:32.758Z,28.00
2023-04-19T06:49:32.262Z,28.00
2023-04-19T06:50:32.266Z,28.00
2023-04-19T06:51:32.268Z,28.09
2023-04-19T06:52:32.267Z,28.08
2023-04-19T06:53:32.242Z,28.03
2023-04-19T06:54:32.844Z,28.06
2023-04-19T06:55:32.283Z,28.03
2023-04-19T06:56:32.212Z,27.99
2023-04-19T06:57:32.189Z,28.02
2023-04-19T06:58:34.505Z,28.15
2023-04-19T06:59:33.780Z,28.14
2023-04-19T07:00:32.311Z,28.13
2023-04-19T07:01:32.181Z,28.10
2023-04-19T07:02:32.281Z,28.05
2023-04-19T07:03:32.542Z,28.08
2023-04-19T07:04:32.409Z,28.19
2023-04-19T07:05:32.183Z,28.14
2023-04-19T07:06:32.167Z,28.17
2023-04-19T07:07:32.181Z,28.14
2023-04-19T07:08:46.372Z,28.07
2023-04-19T07:09:33.276Z,28.15
2023-04-19T07:10:32.083Z,28.14
2023-04-19T07:11:32.135Z,28.17
2023-04-19T07:12:32.376Z,28.12
2023-04-19T07:13:32.082Z,28.09
2023-04-19T07:14:32.287Z,28.14
2023-04-19T07:15:32.101Z,28.13
2023-04-19T07:16:32.102Z,28.10
2023-04-19T07:17:32.170Z,28.12
2023-04-19T07:18:32.053Z,28.16
2023-04-19T07:19:32.033Z,28.05
2023-04-19T07:20:32.254Z,28.07
2023-04-19T07:21:32.022Z,28.12
2023-04-19T07:22:32.265Z,28.14
2023-04-19T07:23:32.042Z,28.14
2023-04-19T07:24:32.815Z,28.04
2023-04-19T07:25:32.294Z,28.09
2023-04-19T07:26:31.986Z,28.06
2023-04-19T07:27:32.019Z,28.14
2023-04-19T07:28:32.070Z,28.16
2023-04-19T07:29:32.081Z,28.13
2023-04-19T07:30:32.086Z,28.10
2023-04-19T07:31:33.756Z,28.14
2023-04-19T07:32:32.194Z,28.16
2023-04-19T07:33:32.125Z,28.07
2023-04-19T07:34:32.213Z,28.12
2023-04-19T07:35:32.141Z,28.07
2023-04-19T07:36:32.341Z,28.06
2023-04-19T07:37:32.136Z,28.06
2023-04-19T07:38:32.273Z,28.06
2023-04-19T07:39:32.174Z,28.06
2023-04-19T07:40:32.239Z,28.06
2023-04-19T07:41:32.811Z,28.03
2023-04-19T07:42:32.261Z,28.03
2023-04-19T07:43:32.317Z,28.04
2023-04-19T07:44:32.279Z,28.09
2023-04-19T07:45:32.340Z,28.03
2023-04-19T07:46:33.432Z,28.07
2023-04-19T07:47:32.595Z,28.12
2023-04-19T07:48:33.666Z,28.09
2023-04-19T07:49:32.451Z,28.10
2023-04-19T07:50:33.396Z,28.07
2023-04-19T07:51:32.418Z,27.98
2023-04-19T07:52:32.443Z,28.02
2023-04-19T07:53:32.400Z,28.00
2023-04-19T07:54:34.300Z,27.99
2023-04-19T07:55:32.510Z,27.93
2023-04-19T07:56:32.501Z,27.96
2023-04-19T07:57:32.464Z,27.94
2023-04-19T07:58:32.513Z,27.94
2023-04-19T07:59:32.515Z,27.93
2023-04-19T08:00:32.619Z,27.84
2023-04-19T08:01:32.952Z,27.82
2023-04-19T08:02:32.738Z,27.87
2023-04-19T08:03:32.803Z,27.85
2023-04-19T08:04:32.945Z,27.87
2023-04-19T08:05:33.005Z,27.86
2023-04-19T08:06:32.735Z,27.86
2023-04-19T08:07:32.777Z,27.76
2023-04-19T08:08:34.202Z,27.88
2023-04-19T08:09:32.797Z,27.81
2023-04-19T08:10:32.831Z,27.86
2023-04-19T08:11:32.770Z,27.90
2023-04-19T08:12:40.590Z,27.87
2023-04-19T08:13:33.873Z,27.83
2023-04-19T08:14:40.518Z,27.84
2023-04-19T08:17:14.213Z,27.81
2023-04-19T08:17:41.527Z,27.82
2023-04-19T08:18:33.794Z,27.88
2023-04-19T08:19:32.868Z,27.91
2023-04-19T08:20:32.861Z,27.88
2023-04-19T08:21:40.583Z,27.81
2023-04-19T08:22:33.783Z,27.82
2023-04-19T08:24:32.683Z,27.87
2023-04-19T08:25:32.708Z,28.01
2023-04-19T08:26:32.825Z,27.94
2023-04-19T08:27:33.393Z,27.94
2023-04-19T08:28:32.742Z,28.00
2023-04-19T08:29:33.387Z,28.05
2023-04-19T08:30:32.772Z,28.03
2023-04-19T08:31:32.714Z,28.07
2023-04-19T08:32:32.780Z,28.07
2023-04-19T08:33:32.736Z,28.01
2023-04-19T08:34:32.870Z,27.99
2023-04-19T08:35:32.760Z,28.02
2023-04-19T08:36:39.503Z,28.02
2023-04-19T08:37:33.716Z,28.05
2023-04-19T08:38:32.713Z,28.03
2023-04-19T08:39:33.903Z,27.99
2023-04-19T08:40:32.701Z,27.99
2023-04-19T08:41:32.708Z,27.99
2023-04-19T08:42:36.782Z,28.02
2023-04-19T08:43:32.723Z,28.03
2023-04-19T08:44:36.665Z,28.07
2023-04-19T08:45:33.674Z,28.06
2023-04-19T08:46:32.756Z,28.06
2023-04-19T08:47:34.325Z,28.05
2023-04-19T08:48:32.926Z,28.05
2023-04-19T08:49:32.580Z,28.09
2023-04-19T08:50:35.950Z,28.08
2023-04-19T08:51:33.619Z,28.09
2023-04-19T08:52:32.905Z,28.03
2023-04-19T08:53:32.612Z,28.05
2023-04-19T08:54:32.583Z,28.09
2023-04-19T08:55:32.579Z,27.94
2023-04-19T08:56:35.694Z,28.03
2023-04-19T08:57:33.320Z,27.99
2023-04-19T08:58:44.537Z,28.01
2023-04-19T08:59:33.585Z,28.01
2023-04-19T09:00:32.553Z,27.95
2023-04-19T09:01:36.229Z,27.99
2023-04-19T09:02:32.772Z,27.98
2023-04-19T09:04:36.160Z,27.90
2023-04-19T09:05:32.675Z,27.90
2023-04-19T09:06:32.700Z,27.90
2023-04-19T09:07:32.514Z,27.90
2023-04-19T09:08:32.441Z,27.89
2023-04-19T09:09:40.702Z,27.88
2023-04-19T09:10:33.495Z,27.87
2023-04-19T09:11:33.305Z,27.81
2023-04-19T09:12:32.450Z,27.83
2023-04-19T09:13:32.450Z,27.86
2023-04-19T09:14:32.515Z,27.86
2023-04-19T09:15:32.542Z,27.86
2023-04-19T09:16:32.603Z,27.83
2023-04-19T09:17:32.598Z,27.81
2023-04-19T09:18:34.440Z,27.80
2023-04-19T09:19:32.574Z,27.83
2023-04-19T09:20:32.594Z,27.99
2023-04-19T09:21:32.553Z,27.92
2023-04-19T09:22:32.658Z,27.84
2023-04-19T09:23:32.527Z,27.90
2023-04-19T09:24:46.458Z,27.87
2023-04-19T09:25:47.173Z,27.82
2023-04-19T09:26:33.624Z,27.83
2023-04-19T09:27:32.542Z,27.87
2023-04-19T09:28:32.516Z,27.95
2023-04-19T09:29:32.530Z,27.93
2023-04-19T09:30:40.315Z,27.95
2023-04-19T09:31:47.812Z,27.92
2023-04-19T09:32:33.584Z,27.95
2023-04-19T09:33:33.393Z,28.00
2023-04-19T09:34:32.561Z,28.03
2023-04-19T09:35:32.462Z,27.97
2023-04-19T09:36:32.474Z,28.02
2023-04-19T09:37:57.402Z,28.02
2023-04-19T09:38:33.501Z,27.99
2023-04-19T09:39:32.430Z,27.93
2023-04-19T09:40:32.392Z,27.97
2023-04-19T09:41:33.365Z,27.99
2023-04-19T09:42:50.982Z,27.96
2023-04-19T09:44:52.903Z,28.02
2023-04-19T09:45:33.551Z,27.99
2023-04-19T09:46:32.486Z,28.01
2023-04-19T09:47:32.501Z,28.06
2023-04-19T09:48:32.485Z,27.99
2023-04-19T09:51:32.448Z,27.97
2023-04-19T09:52:32.471Z,28.06
2023-04-19T09:53:32.410Z,27.95
2023-04-19T09:54:32.417Z,27.96
2023-04-19T09:55:41.325Z,27.96
2023-04-19T09:56:33.427Z,27.93
2023-04-19T09:58:50.772Z,28.01
2023-04-19T09:59:42.452Z,27.97
2023-04-19T10:00:47.879Z,27.94
2023-04-19T10:01:42.423Z,27.87
2023-04-19T10:02:41.476Z,27.93
2023-04-19T10:03:41.563Z,27.94
2023-04-19T10:05:42.197Z,27.93
2023-04-19T10:07:41.568Z,27.91
2023-04-19T10:08:41.512Z,27.86
2023-04-19T10:09:49.699Z,27.89
2023-04-19T10:10:45.219Z,27.83
2023-04-19T10:11:43.082Z,27.86
2023-04-19T10:13:41.629Z,27.89
2023-04-19T10:14:42.253Z,27.86
2023-04-19T10:15:50.223Z,27.81
2023-04-19T10:16:42.633Z,27.85
2023-04-19T10:17:41.530Z,27.86
2023-04-19T10:18:41.602Z,27.86
2023-04-19T10:19:41.517Z,27.81
2023-04-19T10:20:41.546Z,27.89
2023-04-19T10:21:41.642Z,27.92
2023-04-19T10:22:41.420Z,27.93
2023-04-19T10:23:41.498Z,27.89
2023-04-19T10:24:43.879Z,27.82
2023-04-19T10:25:41.484Z,27.80
2023-04-19T10:26:41.838Z,27.78
2023-04-19T10:27:41.536Z,27.85
2023-04-19T10:28:42.113Z,27.78
2023-04-19T10:29:41.541Z,27.83
2023-04-19T10:30:41.422Z,27.92
2023-04-19T10:31:41.688Z,27.91
2023-04-19T10:32:41.379Z,27.89
2023-04-19T10:33:41.404Z,27.91
2023-04-19T10:34:41.884Z,27.95
2023-04-19T10:35:41.373Z,27.85
2023-04-19T10:36:41.362Z,27.85
2023-04-19T10:37:41.477Z,27.86
2023-04-19T10:38:41.347Z,27.83
2023-04-19T10:39:41.336Z,27.80
2023-04-19T10:40:41.391Z,27.85
2023-04-19T10:41:41.616Z,27.89
2023-04-19T10:42:41.315Z,27.79
2023-04-19T10:43:41.353Z,27.83
2023-04-19T10:44:41.341Z,27.83
2023-04-19T10:45:41.386Z,27.80
2023-04-19T10:46:41.275Z,27.91
2023-04-19T10:47:41.377Z,27.85
2023-04-19T10:48:41.285Z,27.82
2023-04-19T10:49:41.255Z,27.76
2023-04-19T10:50:41.245Z,27.82
2023-04-19T10:51:41.731Z,27.80
2023-04-19T10:52:41.195Z,27.80
2023-04-19T10:53:41.248Z,27.70
2023-04-19T10:54:41.595Z,27.71
2023-04-19T10:55:41.229Z,27.73
2023-04-19T10:56:41.186Z,27.63
2023-04-19T10:57:41.186Z,27.67
2023-04-19T10:58:41.150Z,27.63
2023-04-19T10:59:41.213Z,27.57
2023-04-19T11:00:41.165Z,27.65
2023-04-19T11:01:41.276Z,27.64
2023-04-19T11:02:41.728Z,27.64
2023-04-19T11:03:41.324Z,27.68
2023-04-19T11:04:41.400Z,27.64
2023-04-19T11:05:41.178Z,27.56
2023-04-19T11:06:41.131Z,27.53
2023-04-19T11:07:41.615Z,27.53
2023-04-19T11:08:41.128Z,27.49
2023-04-19T11:09:41.291Z,27.49
2023-04-19T11:10:41.133Z,27.47
2023-04-19T11:11:41.297Z,27.48
2023-04-19T11:12:41.260Z,27.34
2023-04-19T11:13:41.247Z,27.35
2023-04-19T11:14:41.442Z,27.34
2023-04-19T11:15:41.404Z,27.32
2023-04-19T11:16:46.122Z,27.26
2023-04-19T11:17:42.397Z,27.29
2023-04-19T11:18:41.344Z,27.26
2023-04-19T11:19:41.353Z,27.26
2023-04-19T11:20:41.331Z,27.22
2023-04-19T11:21:41.307Z,27.21
2023-04-19T11:22:41.309Z,27.23
2023-04-19T11:23:41.285Z,27.26
2023-04-19T11:24:41.311Z,27.30
2023-04-19T11:25:41.329Z,27.29
2023-04-19T11:26:41.334Z,27.29
2023-04-19T11:27:41.328Z,27.17
2023-04-19T11:28:41.338Z,27.18
2023-04-19T11:29:41.355Z,27.25
2023-04-19T11:30:41.362Z,27.23
2023-04-19T11:31:41.355Z,27.20
2023-04-19T11:32:41.430Z,27.15
2023-04-19T11:33:41.337Z,27.10
2023-04-19T11:34:41.394Z,27.08
2023-04-19T11:35:41.390Z,27.17
2023-04-19T11:36:41.418Z,27.13
2023-04-19T11:37:41.409Z,27.11
2023-04-19T11:38:41.446Z,27.06
2023-04-19T11:39:41.537Z,27.04
2023-04-19T11:40:41.857Z,27.02
2023-04-19T11:41:41.538Z,27.01
2023-04-19T11:42:41.525Z,27.04
2023-04-19T11:43:41.584Z,27.01
2023-04-19T11:44:41.580Z,26.95
2023-04-19T11:45:41.654Z,26.96
2023-04-19T11:46:41.715Z,26.95
2023-04-19T11:47:41.802Z,26.92
2023-04-19T11:48:41.666Z,26.99
2023-04-19T11:49:41.710Z,26.98
2023-04-19T11:50:41.776Z,26.99
2023-04-19T11:51:41.723Z,26.95
2023-04-19T11:52:41.803Z,26.84
2023-04-19T11:53:41.822Z,26.91
2023-04-19T11:54:41.842Z,26.99
2023-04-19T11:55:41.928Z,26.96
2023-04-19T11:56:41.919Z,26.95
2023-04-19T11:57:41.970Z,26.96
2023-04-19T11:58:42.014Z,26.82
2023-04-19T11:59:42.048Z,26.94
2023-04-19T12:00:42.047Z,26.88
2023-04-19T12:01:42.123Z,26.97
2023-04-19T12:02:42.350Z,27.04
2023-04-19T12:03:42.354Z,27.02
2023-04-19T12:04:42.381Z,26.99
2023-04-19T12:05:42.284Z,27.02
2023-04-19T12:06:42.259Z,26.98
2023-04-19T12:07:42.218Z,26.90
2023-04-19T12:08:42.313Z,26.78
2023-04-19T12:09:42.281Z,26.78
2023-04-19T12:10:42.348Z,26.82
2023-04-19T12:11:42.386Z,26.84
2023-04-19T12:12:42.350Z,26.76
2023-04-19T12:13:42.385Z,26.72
2023-04-19T12:14:42.389Z,26.73
2023-04-19T12:15:42.502Z,26.81
2023-04-19T12:16:42.513Z,26.69
2023-04-19T12:17:54.622Z,26.78
2023-04-19T12:18:43.512Z,26.75
2023-04-19T12:19:42.443Z,26.74
2023-04-19T12:20:42.426Z,26.73
2023-04-19T12:21:42.445Z,26.66
2023-04-19T12:22:42.407Z,26.72
2023-04-19T12:23:42.388Z,26.70
2023-04-19T12:24:42.399Z,26.70
2023-04-19T12:25:42.379Z,26.63
2023-04-19T12:26:42.402Z,26.67
2023-04-19T12:27:42.444Z,26.66
2023-04-19T12:28:42.383Z,26.61
2023-04-19T12:29:42.528Z,26.61
2023-04-19T12:30:42.388Z,26.67
2023-04-19T12:31:42.390Z,26.61
2023-04-19T12:32:42.415Z,26.62
2023-04-19T12:33:42.382Z,26.62
2023-04-19T12:34:42.498Z,26.67
2023-04-19T12:35:42.461Z,26.67
2023-04-19T12:36:42.450Z,26.70
2023-04-19T12:37:42.548Z,26.56
2023-04-19T12:38:42.671Z,26.64
2023-04-19T12:39:42.584Z,26.53
2023-04-19T12:40:42.573Z,26.64
2023-04-19T12:41:42.705Z,26.77
2023-04-19T12:42:42.666Z,26.74
2023-04-19T12:43:42.736Z,26.74
2023-04-19T12:44:42.730Z,26.68
2023-04-19T12:45:42.754Z,26.76
2023-04-19T12:46:42.785Z,26.70
2023-04-19T12:47:42.822Z,26.67
2023-04-19T12:48:42.846Z,26.68
2023-04-19T12:49:42.924Z,26.68
2023-04-19T12:50:42.913Z,26.70
2023-04-19T12:51:42.977Z,26.70
2023-04-19T12:52:42.986Z,26.77
2023-04-19T12:53:42.998Z,26.73
2023-04-19T12:54:43.050Z,26.77
2023-04-19T12:55:43.089Z,26.74
2023-04-19T12:56:43.109Z,26.74
2023-04-19T12:57:43.187Z,26.77
2023-04-19T12:58:43.180Z,26.73
2023-04-19T12:59:43.234Z,26.76
2023-04-19T13:00:43.226Z,26.76
2023-04-19T13:01:43.333Z,26.79
2023-04-19T13:02:43.489Z,26.79